sensor_id;sensor_type;location;lat;lon;timestamp;temperature;humidity
17659;DHT22;8948;51.534;8.262;2022-07-19T00:00:48;23.30;41.40
17659;DHT22;8948;51.534;8.262;2022-07-19T00:05:50;23.20;41.60
17659;DHT22;8948;51.534;8.262;2022-07-19T00:10:50;23.00;41.30
17659;DHT22;8948;51.534;8.262;2022-07-19T00:15:51;23.00;41.60
17659;DHT22;8948;51.534;8.262;2022-07-19T00:20:51;22.90;41.60
17659;DHT22;8948;51.534;8.262;2022-07-19T00:25:52;22.80;41.70
17659;DHT22;8948;51.534;8.262;2022-07-19T00:30:53;22.70;42.00
17659;DHT22;8948;51.534;8.262;2022-07-19T00:35:54;22.60;41.70
17659;DHT22;8948;51.534;8.262;2022-07-19T00:40:54;22.60;41.90
17659;DHT22;8948;51.534;8.262;2022-07-19T00:45:55;22.50;42.20
17659;DHT22;8948;51.534;8.262;2022-07-19T00:50:56;22.40;42.20
17659;DHT22;8948;51.534;8.262;2022-07-19T00:55:57;22.30;42.40
17659;DHT22;8948;51.534;8.262;2022-07-19T01:00:59;22.20;42.20
17659;DHT22;8948;51.534;8.262;2022-07-19T01:05:59;22.20;42.40
17659;DHT22;8948;51.534;8.262;2022-07-19T01:11:03;22.10;42.50
17659;DHT22;8948;51.534;8.262;2022-07-19T01:16:04;22.00;42.80
17659;DHT22;8948;51.534;8.262;2022-07-19T01:21:07;21.90;42.50
17659;DHT22;8948;51.534;8.262;2022-07-19T01:26:08;21.80;42.70
17659;DHT22;8948;51.534;8.262;2022-07-19T01:31:09;21.80;43.10
17659;DHT22;8948;51.534;8.262;2022-07-19T01:36:09;21.80;42.80
17659;DHT22;8948;51.534;8.262;2022-07-19T01:41:10;21.70;43.10
17659;DHT22;8948;51.534;8.262;2022-07-19T01:46:11;21.60;42.80
17659;DHT22;8948;51.534;8.262;2022-07-19T01:51:11;21.50;43.10
17659;DHT22;8948;51.534;8.262;2022-07-19T01:56:12;21.40;42.80
17659;DHT22;8948;51.534;8.262;2022-07-19T02:01:13;21.40;42.90
17659;DHT22;8948;51.534;8.262;2022-07-19T02:06:13;21.40;43.10
17659;DHT22;8948;51.534;8.262;2022-07-19T02:11:14;21.40;43.20
17659;DHT22;8948;51.534;8.262;2022-07-19T02:16:35;21.40;43.20
17659;DHT22;8948;51.534;8.262;2022-07-19T02:21:37;21.30;43.10
17659;DHT22;8948;51.534;8.262;2022-07-19T02:26:38;21.30;43.20
17659;DHT22;8948;51.534;8.262;2022-07-19T02:31:38;21.20;43.10
17659;DHT22;8948;51.534;8.262;2022-07-19T02:36:39;21.20;43.40
17659;DHT22;8948;51.534;8.262;2022-07-19T02:41:39;21.10;43.60
17659;DHT22;8948;51.534;8.262;2022-07-19T02:46:40;21.10;44.00
17659;DHT22;8948;51.534;8.262;2022-07-19T02:51:40;21.00;43.90
17659;DHT22;8948;51.534;8.262;2022-07-19T02:56:41;20.90;44.30
17659;DHT22;8948;51.534;8.262;2022-07-19T03:01:42;20.80;44.40
17659;DHT22;8948;51.534;8.262;2022-07-19T03:06:42;20.70;44.40
17659;DHT22;8948;51.534;8.262;2022-07-19T03:11:43;20.60;44.60
17659;DHT22;8948;51.534;8.262;2022-07-19T03:16:43;20.70;44.50
17659;DHT22;8948;51.534;8.262;2022-07-19T03:21:44;20.60;44.60
17659;DHT22;8948;51.534;8.262;2022-07-19T03:26:44;20.60;44.90
17659;DHT22;8948;51.534;8.262;2022-07-19T03:31:45;20.60;45.00
17659;DHT22;8948;51.534;8.262;2022-07-19T03:36:46;20.50;45.00
17659;DHT22;8948;51.534;8.262;2022-07-19T03:41:46;20.50;44.80
17659;DHT22;8948;51.534;8.262;2022-07-19T03:46:47;20.60;45.00
17659;DHT22;8948;51.534;8.262;2022-07-19T03:51:47;20.50;45.70
17659;DHT22;8948;51.534;8.262;2022-07-19T03:56:49;20.70;49.90
17659;DHT22;8948;51.534;8.262;2022-07-19T04:01:50;20.80;47.90
17659;DHT22;8948;51.534;8.262;2022-07-19T04:06:51;20.90;48.10
17659;DHT22;8948;51.534;8.262;2022-07-19T04:11:51;20.90;48.30
17659;DHT22;8948;51.534;8.262;2022-07-19T04:16:52;21.10;48.10
17659;DHT22;8948;51.534;8.262;2022-07-19T04:21:52;21.00;47.60
17659;DHT22;8948;51.534;8.262;2022-07-19T04:26:53;21.10;47.80
17659;DHT22;8948;51.534;8.262;2022-07-19T04:31:54;21.10;47.40
17659;DHT22;8948;51.534;8.262;2022-07-19T04:36:54;21.20;48.00
17659;DHT22;8948;51.534;8.262;2022-07-19T04:41:55;21.30;47.00
17659;DHT22;8948;51.534;8.262;2022-07-19T04:46:55;21.40;46.70
17659;DHT22;8948;51.534;8.262;2022-07-19T04:51:56;21.40;45.40
17659;DHT22;8948;51.534;8.262;2022-07-19T04:56:57;21.40;45.10
17659;DHT22;8948;51.534;8.262;2022-07-19T05:01:57;21.50;46.20
17659;DHT22;8948;51.534;8.262;2022-07-19T05:06:58;21.60;45.30
17659;DHT22;8948;51.534;8.262;2022-07-19T05:11:59;21.70;45.30
17659;DHT22;8948;51.534;8.262;2022-07-19T05:17:00;21.80;45.90
17659;DHT22;8948;51.534;8.262;2022-07-19T05:22:01;21.90;45.30
17659;DHT22;8948;51.534;8.262;2022-07-19T05:27:02;22.10;45.50
17659;DHT22;8948;51.534;8.262;2022-07-19T05:32:03;22.20;45.40
17659;DHT22;8948;51.534;8.262;2022-07-19T05:37:03;22.40;45.30
17659;DHT22;8948;51.534;8.262;2022-07-19T05:42:04;22.60;45.40
17659;DHT22;8948;51.534;8.262;2022-07-19T05:47:05;22.80;45.60
17659;DHT22;8948;51.534;8.262;2022-07-19T05:52:05;23.00;45.50
17659;DHT22;8948;51.534;8.262;2022-07-19T05:57:06;23.20;45.10
17659;DHT22;8948;51.534;8.262;2022-07-19T06:02:07;23.40;44.80
17659;DHT22;8948;51.534;8.262;2022-07-19T06:07:07;23.60;44.50
17659;DHT22;8948;51.534;8.262;2022-07-19T06:12:09;23.90;45.80
17659;DHT22;8948;51.534;8.262;2022-07-19T06:17:09;24.20;45.20
17659;DHT22;8948;51.534;8.262;2022-07-19T06:22:10;24.40;44.70
17659;DHT22;8948;51.534;8.262;2022-07-19T06:27:10;24.70;44.20
17659;DHT22;8948;51.534;8.262;2022-07-19T06:32:11;25.00;43.70
17659;DHT22;8948;51.534;8.262;2022-07-19T06:37:12;25.30;43.70
17659;DHT22;8948;51.534;8.262;2022-07-19T06:42:12;25.60;43.30
17659;DHT22;8948;51.534;8.262;2022-07-19T06:47:13;25.90;42.70
17659;DHT22;8948;51.534;8.262;2022-07-19T06:52:13;26.20;41.80
17659;DHT22;8948;51.534;8.262;2022-07-19T06:57:14;26.60;41.20
17659;DHT22;8948;51.534;8.262;2022-07-19T07:02:15;26.90;41.40
17659;DHT22;8948;51.534;8.262;2022-07-19T07:07:15;27.20;38.90
17659;DHT22;8948;51.534;8.262;2022-07-19T07:12:16;27.50;40.10
17659;DHT22;8948;51.534;8.262;2022-07-19T07:17:17;27.80;39.00
17659;DHT22;8948;51.534;8.262;2022-07-19T07:22:17;28.10;39.30
17659;DHT22;8948;51.534;8.262;2022-07-19T07:27:19;28.50;38.40
17659;DHT22;8948;51.534;8.262;2022-07-19T07:32:20;28.90;34.70
17659;DHT22;8948;51.534;8.262;2022-07-19T07:37:20;29.20;34.70
17659;DHT22;8948;51.534;8.262;2022-07-19T07:42:21;29.50;36.50
17659;DHT22;8948;51.534;8.262;2022-07-19T07:47:22;29.90;33.80
17659;DHT22;8948;51.534;8.262;2022-07-19T07:52:23;30.20;31.40
17659;DHT22;8948;51.534;8.262;2022-07-19T07:57:23;30.50;32.30
17659;DHT22;8948;51.534;8.262;2022-07-19T08:02:24;30.90;30.20
17659;DHT22;8948;51.534;8.262;2022-07-19T08:07:24;31.10;28.60
17659;DHT22;8948;51.534;8.262;2022-07-19T08:12:25;31.40;29.20
17659;DHT22;8948;51.534;8.262;2022-07-19T08:17:26;31.60;27.70
17659;DHT22;8948;51.534;8.262;2022-07-19T08:22:26;31.70;28.10
17659;DHT22;8948;51.534;8.262;2022-07-19T08:27:28;32.10;28.30
17659;DHT22;8948;51.534;8.262;2022-07-19T08:32:29;32.50;28.00
17659;DHT22;8948;51.534;8.262;2022-07-19T08:37:30;32.70;27.60
17659;DHT22;8948;51.534;8.262;2022-07-19T08:42:30;33.00;26.70
17659;DHT22;8948;51.534;8.262;2022-07-19T08:47:31;33.20;26.80
17659;DHT22;8948;51.534;8.262;2022-07-19T08:52:33;33.40;27.80
17659;DHT22;8948;51.534;8.262;2022-07-19T08:57:34;33.80;27.80
17659;DHT22;8948;51.534;8.262;2022-07-19T09:08:08;34.40;26.50
17659;DHT22;8948;51.534;8.262;2022-07-19T09:13:10;34.70;26.40
17659;DHT22;8948;51.534;8.262;2022-07-19T09:23:17;35.10;25.20
17659;DHT22;8948;51.534;8.262;2022-07-19T09:28:20;35.60;25.70
17659;DHT22;8948;51.534;8.262;2022-07-19T09:33:25;35.70;25.60
17659;DHT22;8948;51.534;8.262;2022-07-19T09:38:34;36.00;25.70
17659;DHT22;8948;51.534;8.262;2022-07-19T09:43:51;36.20;25.40
17659;DHT22;8948;51.534;8.262;2022-07-19T09:48:52;36.20;23.70
17659;DHT22;8948;51.534;8.262;2022-07-19T09:53:52;36.40;25.60
17659;DHT22;8948;51.534;8.262;2022-07-19T09:58:54;36.70;24.10
17659;DHT22;8948;51.534;8.262;2022-07-19T10:04:08;36.80;24.30
17659;DHT22;8948;51.534;8.262;2022-07-19T10:09:11;37.20;24.30
17659;DHT22;8948;51.534;8.262;2022-07-19T10:14:12;37.40;24.10
17659;DHT22;8948;51.534;8.262;2022-07-19T10:19:40;37.60;24.30
17659;DHT22;8948;51.534;8.262;2022-07-19T10:24:54;37.70;23.40
17659;DHT22;8948;51.534;8.262;2022-07-19T10:35:27;38.30;23.20
17659;DHT22;8948;51.534;8.262;2022-07-19T10:40:43;38.50;21.50
17659;DHT22;8948;51.534;8.262;2022-07-19T10:50:57;38.60;21.90
17659;DHT22;8948;51.534;8.262;2022-07-19T10:56:18;39.00;22.80
17659;DHT22;8948;51.534;8.262;2022-07-19T11:01:20;39.10;21.60
17659;DHT22;8948;51.534;8.262;2022-07-19T11:06:26;39.50;22.00
17659;DHT22;8948;51.534;8.262;2022-07-19T11:11:27;39.70;21.60
17659;DHT22;8948;51.534;8.262;2022-07-19T11:16:28;39.90;21.00
17659;DHT22;8948;51.534;8.262;2022-07-19T11:21:31;40.20;20.80
17659;DHT22;8948;51.534;8.262;2022-07-19T11:26:40;40.40;21.10
17659;DHT22;8948;51.534;8.262;2022-07-19T11:31:47;40.60;21.70
17659;DHT22;8948;51.534;8.262;2022-07-19T11:36:58;40.60;22.00
17659;DHT22;8948;51.534;8.262;2022-07-19T11:41:58;40.60;21.30
17659;DHT22;8948;51.534;8.262;2022-07-19T11:46:59;40.50;21.40
17659;DHT22;8948;51.534;8.262;2022-07-19T11:51:59;40.50;21.40
17659;DHT22;8948;51.534;8.262;2022-07-19T11:57:00;40.60;21.10
17659;DHT22;8948;51.534;8.262;2022-07-19T12:02:00;40.80;21.10
17659;DHT22;8948;51.534;8.262;2022-07-19T12:07:01;41.20;21.30
17659;DHT22;8948;51.534;8.262;2022-07-19T12:12:15;41.20;21.70
17659;DHT22;8948;51.534;8.262;2022-07-19T12:17:18;41.60;20.40
17659;DHT22;8948;51.534;8.262;2022-07-19T12:22:39;41.90;19.10
17659;DHT22;8948;51.534;8.262;2022-07-19T12:27:40;42.00;19.70
17659;DHT22;8948;51.534;8.262;2022-07-19T12:32:41;42.20;20.10
17659;DHT22;8948;51.534;8.262;2022-07-19T12:37:48;42.10;18.60
17659;DHT22;8948;51.534;8.262;2022-07-19T12:42:54;42.30;18.70
17659;DHT22;8948;51.534;8.262;2022-07-19T12:48:02;42.60;18.50
17659;DHT22;8948;51.534;8.262;2022-07-19T12:53:05;42.70;19.20
17659;DHT22;8948;51.534;8.262;2022-07-19T12:58:07;42.80;19.00
17659;DHT22;8948;51.534;8.262;2022-07-19T13:03:08;43.00;19.30
17659;DHT22;8948;51.534;8.262;2022-07-19T13:08:08;43.00;18.00
17659;DHT22;8948;51.534;8.262;2022-07-19T13:13:09;43.10;17.90
17659;DHT22;8948;51.534;8.262;2022-07-19T13:18:10;43.10;17.20
17659;DHT22;8948;51.534;8.262;2022-07-19T13:23:11;43.30;18.00
17659;DHT22;8948;51.534;8.262;2022-07-19T13:28:11;43.20;18.10
17659;DHT22;8948;51.534;8.262;2022-07-19T13:33:12;43.20;17.60
17659;DHT22;8948;51.534;8.262;2022-07-19T13:38:13;43.20;17.30
17659;DHT22;8948;51.534;8.262;2022-07-19T13:43:13;43.40;17.90
17659;DHT22;8948;51.534;8.262;2022-07-19T13:48:14;43.50;17.60
17659;DHT22;8948;51.534;8.262;2022-07-19T13:53:15;43.80;17.60
17659;DHT22;8948;51.534;8.262;2022-07-19T13:58:15;44.00;17.00
17659;DHT22;8948;51.534;8.262;2022-07-19T14:03:16;44.10;17.50
17659;DHT22;8948;51.534;8.262;2022-07-19T14:08:17;44.10;16.40
17659;DHT22;8948;51.534;8.262;2022-07-19T14:13:18;44.20;16.80
17659;DHT22;8948;51.534;8.262;2022-07-19T14:18:19;44.20;16.80
17659;DHT22;8948;51.534;8.262;2022-07-19T14:23:20;43.90;17.00
17659;DHT22;8948;51.534;8.262;2022-07-19T14:28:22;43.90;17.70
17659;DHT22;8948;51.534;8.262;2022-07-19T14:33:22;44.00;16.80
17659;DHT22;8948;51.534;8.262;2022-07-19T14:38:23;44.00;17.00
17659;DHT22;8948;51.534;8.262;2022-07-19T14:43:24;44.30;16.90
17659;DHT22;8948;51.534;8.262;2022-07-19T14:48:24;44.10;16.00
17659;DHT22;8948;51.534;8.262;2022-07-19T14:53:25;44.10;17.10
17659;DHT22;8948;51.534;8.262;2022-07-19T14:58:25;44.10;17.50
17659;DHT22;8948;51.534;8.262;2022-07-19T15:03:26;44.30;17.60
17659;DHT22;8948;51.534;8.262;2022-07-19T15:08:27;44.20;17.00
17659;DHT22;8948;51.534;8.262;2022-07-19T15:13:28;44.00;17.20
17659;DHT22;8948;51.534;8.262;2022-07-19T15:18:28;43.80;17.80
17659;DHT22;8948;51.534;8.262;2022-07-19T15:23:31;43.90;17.60
17659;DHT22;8948;51.534;8.262;2022-07-19T15:28:33;43.50;16.70
17659;DHT22;8948;51.534;8.262;2022-07-19T15:33:34;43.70;16.90
17659;DHT22;8948;51.534;8.262;2022-07-19T15:38:35;43.60;17.80
17659;DHT22;8948;51.534;8.262;2022-07-19T15:43:35;43.70;17.80
17659;DHT22;8948;51.534;8.262;2022-07-19T15:48:37;43.80;17.70
17659;DHT22;8948;51.534;8.262;2022-07-19T15:53:38;43.70;16.60
17659;DHT22;8948;51.534;8.262;2022-07-19T15:58:41;43.30;17.10
17659;DHT22;8948;51.534;8.262;2022-07-19T16:03:42;43.20;17.40
17659;DHT22;8948;51.534;8.262;2022-07-19T16:08:43;43.20;17.00
17659;DHT22;8948;51.534;8.262;2022-07-19T16:13:44;43.10;17.70
17659;DHT22;8948;51.534;8.262;2022-07-19T16:18:44;42.60;17.60
17659;DHT22;8948;51.534;8.262;2022-07-19T16:23:45;42.20;18.00
17659;DHT22;8948;51.534;8.262;2022-07-19T16:28:45;42.00;18.40
17659;DHT22;8948;51.534;8.262;2022-07-19T16:33:46;41.90;19.00
17659;DHT22;8948;51.534;8.262;2022-07-19T16:38:47;41.60;19.10
17659;DHT22;8948;51.534;8.262;2022-07-19T16:43:47;41.30;18.90
17659;DHT22;8948;51.534;8.262;2022-07-19T16:48:48;41.10;19.10
17659;DHT22;8948;51.534;8.262;2022-07-19T16:53:50;40.70;19.70
17659;DHT22;8948;51.534;8.262;2022-07-19T16:58:51;40.50;19.40
17659;DHT22;8948;51.534;8.262;2022-07-19T17:03:51;40.20;19.80
17659;DHT22;8948;51.534;8.262;2022-07-19T17:08:52;40.00;20.30
17659;DHT22;8948;51.534;8.262;2022-07-19T17:13:53;39.80;20.20
17659;DHT22;8948;51.534;8.262;2022-07-19T17:18:53;39.60;20.60
17659;DHT22;8948;51.534;8.262;2022-07-19T17:23:54;39.60;20.90
17659;DHT22;8948;51.534;8.262;2022-07-19T17:28:55;39.60;20.70
17659;DHT22;8948;51.534;8.262;2022-07-19T17:33:55;39.50;20.80
17659;DHT22;8948;51.534;8.262;2022-07-19T17:38:56;39.50;20.90
17659;DHT22;8948;51.534;8.262;2022-07-19T17:43:57;39.50;21.50
17659;DHT22;8948;51.534;8.262;2022-07-19T17:48:57;39.40;20.90
17659;DHT22;8948;51.534;8.262;2022-07-19T17:54:00;39.30;21.20
17659;DHT22;8948;51.534;8.262;2022-07-19T17:59:00;39.10;21.60
17659;DHT22;8948;51.534;8.262;2022-07-19T18:04:01;39.00;22.20
17659;DHT22;8948;51.534;8.262;2022-07-19T18:09:02;38.70;21.90
17659;DHT22;8948;51.534;8.262;2022-07-19T18:14:03;38.50;21.90
17659;DHT22;8948;51.534;8.262;2022-07-19T18:19:05;38.20;21.90
17659;DHT22;8948;51.534;8.262;2022-07-19T18:24:06;38.10;22.10
17659;DHT22;8948;51.534;8.262;2022-07-19T18:29:06;37.90;22.40
17659;DHT22;8948;51.534;8.262;2022-07-19T18:34:09;37.90;22.70
17659;DHT22;8948;51.534;8.262;2022-07-19T18:39:11;37.70;22.70
17659;DHT22;8948;51.534;8.262;2022-07-19T18:44:11;37.50;23.00
17659;DHT22;8948;51.534;8.262;2022-07-19T18:49:12;37.40;23.80
17659;DHT22;8948;51.534;8.262;2022-07-19T18:54:13;37.10;23.80
17659;DHT22;8948;51.534;8.262;2022-07-19T18:59:13;36.80;24.10
17659;DHT22;8948;51.534;8.262;2022-07-19T19:04:15;36.50;24.60
17659;DHT22;8948;51.534;8.262;2022-07-19T19:09:16;36.20;24.40
17659;DHT22;8948;51.534;8.262;2022-07-19T19:14:16;35.90;24.70
17659;DHT22;8948;51.534;8.262;2022-07-19T19:19:17;35.60;25.50
17659;DHT22;8948;51.534;8.262;2022-07-19T19:24:17;35.20;26.00
17659;DHT22;8948;51.534;8.262;2022-07-19T19:29:18;34.80;26.40
17659;DHT22;8948;51.534;8.262;2022-07-19T19:34:19;34.40;27.00
17659;DHT22;8948;51.534;8.262;2022-07-19T19:39:19;34.10;27.50
17659;DHT22;8948;51.534;8.262;2022-07-19T19:44:20;33.80;27.80
17659;DHT22;8948;51.534;8.262;2022-07-19T19:49:21;33.50;27.70
17659;DHT22;8948;51.534;8.262;2022-07-19T19:54:21;33.20;28.50
17659;DHT22;8948;51.534;8.262;2022-07-19T19:59:22;32.90;28.60
17659;DHT22;8948;51.534;8.262;2022-07-19T20:04:23;32.70;29.00
17659;DHT22;8948;51.534;8.262;2022-07-19T20:09:23;32.40;29.30
17659;DHT22;8948;51.534;8.262;2022-07-19T20:14:24;32.10;29.60
17659;DHT22;8948;51.534;8.262;2022-07-19T20:19:25;31.90;29.80
17659;DHT22;8948;51.534;8.262;2022-07-19T20:24:25;31.60;30.20
17659;DHT22;8948;51.534;8.262;2022-07-19T20:29:26;31.50;30.30
17659;DHT22;8948;51.534;8.262;2022-07-19T20:34:27;31.30;30.30
17659;DHT22;8948;51.534;8.262;2022-07-19T20:39:28;31.10;30.40
17659;DHT22;8948;51.534;8.262;2022-07-19T20:44:29;30.90;30.80
17659;DHT22;8948;51.534;8.262;2022-07-19T20:49:29;30.80;30.90
17659;DHT22;8948;51.534;8.262;2022-07-19T20:54:30;30.60;30.80
17659;DHT22;8948;51.534;8.262;2022-07-19T20:59:31;30.50;31.20
17659;DHT22;8948;51.534;8.262;2022-07-19T21:04:31;30.40;30.60
17659;DHT22;8948;51.534;8.262;2022-07-19T21:09:32;30.20;31.10
17659;DHT22;8948;51.534;8.262;2022-07-19T21:14:33;30.10;30.90
17659;DHT22;8948;51.534;8.262;2022-07-19T21:19:34;30.10;30.50
17659;DHT22;8948;51.534;8.262;2022-07-19T21:24:34;30.00;30.50
17659;DHT22;8948;51.534;8.262;2022-07-19T21:29:35;29.90;30.70
17659;DHT22;8948;51.534;8.262;2022-07-19T21:34:36;29.80;30.40
17659;DHT22;8948;51.534;8.262;2022-07-19T21:39:37;29.80;30.60
17659;DHT22;8948;51.534;8.262;2022-07-19T21:44:37;29.70;30.70
17659;DHT22;8948;51.534;8.262;2022-07-19T21:49:38;29.60;30.50
17659;DHT22;8948;51.534;8.262;2022-07-19T21:54:39;29.50;30.70
17659;DHT22;8948;51.534;8.262;2022-07-19T21:59:39;29.40;31.10
17659;DHT22;8948;51.534;8.262;2022-07-19T22:04:40;29.30;31.00
17659;DHT22;8948;51.534;8.262;2022-07-19T22:09:40;29.30;30.80
17659;DHT22;8948;51.534;8.262;2022-07-19T22:14:41;29.20;30.70
17659;DHT22;8948;51.534;8.262;2022-07-19T22:19:42;29.00;30.80
17659;DHT22;8948;51.534;8.262;2022-07-19T22:24:43;28.90;31.10
17659;DHT22;8948;51.534;8.262;2022-07-19T22:29:44;28.80;31.20
17659;DHT22;8948;51.534;8.262;2022-07-19T22:34:44;28.70;30.90
17659;DHT22;8948;51.534;8.262;2022-07-19T22:39:45;28.50;30.90
17659;DHT22;8948;51.534;8.262;2022-07-19T22:44:45;28.40;31.10
17659;DHT22;8948;51.534;8.262;2022-07-19T22:49:46;28.40;31.10
17659;DHT22;8948;51.534;8.262;2022-07-19T22:54:47;28.30;30.80
17659;DHT22;8948;51.534;8.262;2022-07-19T22:59:48;28.20;31.00
17659;DHT22;8948;51.534;8.262;2022-07-19T23:04:49;28.10;31.20
17659;DHT22;8948;51.534;8.262;2022-07-19T23:09:49;28.00;31.30
17659;DHT22;8948;51.534;8.262;2022-07-19T23:14:50;28.00;31.40
17659;DHT22;8948;51.534;8.262;2022-07-19T23:19:51;27.90;31.50
17659;DHT22;8948;51.534;8.262;2022-07-19T23:24:52;27.80;31.60
17659;DHT22;8948;51.534;8.262;2022-07-19T23:29:53;27.80;31.60
17659;DHT22;8948;51.534;8.262;2022-07-19T23:34:53;27.60;31.90
17659;DHT22;8948;51.534;8.262;2022-07-19T23:39:54;27.50;31.90
17659;DHT22;8948;51.534;8.262;2022-07-19T23:44:54;27.50;32.00
17659;DHT22;8948;51.534;8.262;2022-07-19T23:49:55;27.40;31.70
17659;DHT22;8948;51.534;8.262;2022-07-19T23:54:56;27.30;31.70
17659;DHT22;8948;51.534;8.262;2022-07-19T23:59:56;27.40;31.70
